Hurlburt Field
KHRT : now visible

Airfield :











YOU CAN JOIN US ON...

 
LOGIN :

Register | Disclaimer

   EN    FR    IT 

 









Legend :    VFR   Marginal VFR   IFR   Intensive IFR   Very Intensive IFR
Visi :
Ceiling :
>= 8 km
>= 3000ft
5 to 8 km
1000 to 3000 ft
1500m to 5 km
500 to 1000 ft
800 to 1500m
200 to 500 ft
< 800m
< 200 ft
Symbols :   Thunderstorms  Fog  Heavy snow  Heavy precipitations  Wind > 20 kt






- Airport Elevation : 38 ft


KHRT - Hurlburt Field

CURRENT METAR :
  • 100456Z 20005KT 10SM BKN190 23/21 A2999 RMK AO2A SLP157 T02250206 $

EXPIRED METARs :
  • 100356Z AUTO 20005KT 10SM CLR 23/21 A3000 RMK AO2 SLP161 T02250208 $
  • 100256Z AUTO 16008KT 10SM CLR 23/21 A2998 RMK AO2 SLP154 T02270208 55000 $

TAF AMD TAF KHRT
Valid from the 09 at 20:00 until the 11 at 00:00 UTC


092045Z 0920/1024 15012G18KT 9999 SCT030 QNH2996INS
BECMG 1001/1002 18009KT 9999 SCT025 SCT120 QNH2996INS
BECMG 1012/1013 20010KT 8000 -SHRA BKN020 QNH2997INS
TEMPO 1015/1019 VRB15G25KT 1600 TSRA OVC015CB
BECMG 1019/1020 25010G15KT 9999 NSW BKN020 BKN050 OVC090 QNH2996INS TX28/0920Z TN20/1011Z LAST NO AMDS AFT 0920 NEXT 1010
KZJX FIR / North America



MET'MAP, your aeronautical weather chart ! - Copyright ORBIFLY December 2007 - Disclaimer

ORBIFLY MET'MAP TEAM :

Programming & Development : Alexandra Zaïnal
Concept & original design : Baudouin d'Aumeries
Assistance for programming : Marc-Olivier Méhu
Technical & hardware support : Manuel Goepfert

Contact : metmap@orbifly.com




SOURCES & CREDITS :

   NOAA       Earth
Advisory